createdAt,value
2022-10-01T00:00:23.915Z,15.13
2022-10-01T00:01:23.873Z,15.09
2022-10-01T00:02:23.813Z,15.11
2022-10-01T00:03:23.749Z,15.08
2022-10-01T00:04:23.698Z,15.06
2022-10-01T00:05:23.644Z,15.09
2022-10-01T00:06:23.595Z,15.09
2022-10-01T00:07:23.531Z,15.11
2022-10-01T00:08:23.481Z,15.09
2022-10-01T00:09:23.422Z,15.03
2022-10-01T00:10:23.370Z,15.06
2022-10-01T00:11:23.315Z,15.05
2022-10-01T00:12:23.261Z,15.12
2022-10-01T00:13:23.208Z,15.08
2022-10-01T00:14:23.157Z,15.03
2022-10-01T00:15:23.097Z,15.08
2022-10-01T00:16:23.116Z,15.02
2022-10-01T00:17:22.989Z,15.06
2022-10-01T00:18:22.941Z,15.08
2022-10-01T00:19:22.877Z,15.03
2022-10-01T00:20:22.830Z,15.02
2022-10-01T00:21:24.294Z,14.94
2022-10-01T00:22:24.293Z,15.02
2022-10-01T00:23:22.663Z,15.06
2022-10-01T00:24:22.610Z,15.06
2022-10-01T00:25:22.561Z,15.01
2022-10-01T00:26:22.505Z,15.05
2022-10-01T00:27:22.468Z,15.03
2022-10-01T00:28:22.450Z,15.11
2022-10-01T00:29:22.335Z,15.03
2022-10-01T00:30:22.282Z,14.98
2022-10-01T00:31:22.259Z,15.09
2022-10-01T00:32:22.174Z,15.05
2022-10-01T00:33:22.117Z,14.99
2022-10-01T00:34:22.073Z,15.01
2022-10-01T00:35:22.007Z,15.03
2022-10-01T00:36:21.954Z,14.99
2022-10-01T00:37:21.902Z,15.01
2022-10-01T00:38:21.848Z,15.01
2022-10-01T00:39:21.789Z,14.94
2022-10-01T00:40:21.738Z,15.03
2022-10-01T00:41:21.685Z,14.95
2022-10-01T00:42:21.627Z,15.01
2022-10-01T00:43:21.573Z,14.94
2022-10-01T00:44:21.521Z,15.01
2022-10-01T00:45:21.465Z,14.99
2022-10-01T00:46:21.459Z,14.98
2022-10-01T00:47:21.354Z,14.99
2022-10-01T00:48:21.301Z,15.08
2022-10-01T00:49:21.247Z,15.02
2022-10-01T00:50:21.196Z,15.01
2022-10-01T00:51:21.138Z,14.95
2022-10-01T00:52:21.084Z,14.90
2022-10-01T00:53:21.028Z,14.99
2022-10-01T00:54:20.986Z,14.94
2022-10-01T00:55:20.918Z,14.91
2022-10-01T00:56:20.875Z,14.98
2022-10-01T00:57:20.810Z,14.88
2022-10-01T00:58:20.757Z,14.94
2022-10-01T00:59:20.704Z,14.94
2022-10-01T01:00:20.648Z,14.94
2022-10-01T01:01:20.629Z,14.90
2022-10-01T01:02:20.627Z,14.88
2022-10-01T01:03:20.484Z,14.88
2022-10-01T01:04:20.435Z,14.86
2022-10-01T01:05:20.376Z,14.93
2022-10-01T01:06:20.383Z,14.94
2022-10-01T01:07:20.271Z,14.88
2022-10-01T01:08:20.211Z,14.88
2022-10-01T01:09:20.155Z,14.90
2022-10-01T01:10:20.335Z,14.90
2022-10-01T01:11:20.048Z,14.95
2022-10-01T01:12:20.112Z,14.91
2022-10-01T01:13:19.937Z,14.93
2022-10-01T01:14:19.884Z,15.01
2022-10-01T01:15:19.830Z,14.88
2022-10-01T01:16:19.851Z,14.91
2022-10-01T01:17:19.724Z,14.88
2022-10-01T01:18:19.666Z,14.90
2022-10-01T01:19:19.611Z,14.93
2022-10-01T01:20:19.558Z,14.94
2022-10-01T01:21:19.502Z,14.95
2022-10-01T01:22:19.541Z,14.87
2022-10-01T01:23:19.392Z,14.87
2022-10-01T01:24:19.368Z,14.90
2022-10-01T01:25:19.285Z,14.88
2022-10-01T01:26:19.230Z,14.95
2022-10-01T01:27:19.176Z,14.88
2022-10-01T01:28:19.172Z,14.87
2022-10-01T01:29:19.067Z,14.91
2022-10-01T01:30:19.011Z,14.88
2022-10-01T01:31:19.001Z,14.90
2022-10-01T01:32:19.793Z,14.94
2022-10-01T01:33:18.849Z,14.84
2022-10-01T01:34:18.794Z,14.87
2022-10-01T01:35:18.739Z,14.91
2022-10-01T01:36:19.294Z,14.94
2022-10-01T01:37:18.632Z,14.87
2022-10-01T01:38:18.581Z,14.93
2022-10-01T01:39:18.519Z,14.95
2022-10-01T01:40:18.469Z,14.84
2022-10-01T01:41:19.293Z,14.99
2022-10-01T01:42:18.359Z,14.98
2022-10-01T01:43:18.302Z,14.90
2022-10-01T01:44:18.248Z,14.93
2022-10-01T01:45:18.192Z,14.88
2022-10-01T01:46:18.163Z,14.93
2022-10-01T01:47:18.794Z,14.81
2022-10-01T01:48:18.031Z,14.87
2022-10-01T01:49:17.973Z,14.86
2022-10-01T01:50:17.931Z,14.86
2022-10-01T01:51:17.866Z,14.93
2022-10-01T01:52:17.813Z,14.93
2022-10-01T01:53:17.757Z,14.91
2022-10-01T01:54:17.709Z,14.84
2022-10-01T01:55:17.647Z,14.91
2022-10-01T01:56:17.594Z,14.93
2022-10-01T01:57:17.538Z,14.90
2022-10-01T01:58:17.485Z,14.91
2022-10-01T01:59:17.431Z,14.84
2022-10-01T02:00:17.376Z,14.91
2022-10-01T02:01:17.348Z,14.93
2022-10-01T02:02:17.374Z,14.94
2022-10-01T02:03:17.211Z,14.94
2022-10-01T02:04:17.159Z,14.90
2022-10-01T02:05:17.102Z,14.86
2022-10-01T02:06:17.048Z,14.90
2022-10-01T02:07:16.994Z,14.86
2022-10-01T02:08:16.941Z,14.94
2022-10-01T02:09:16.885Z,14.86
2022-10-01T02:10:16.842Z,14.87
2022-10-01T02:11:16.773Z,14.88
2022-10-01T02:12:16.720Z,14.86
2022-10-01T02:13:16.670Z,14.88
2022-10-01T02:14:16.611Z,14.88
2022-10-01T02:15:16.555Z,14.86
2022-10-01T02:16:16.590Z,14.87
2022-10-01T02:17:16.482Z,14.87
2022-10-01T02:18:16.392Z,14.83
2022-10-01T02:19:16.340Z,14.84
2022-10-01T02:20:16.286Z,14.81
2022-10-01T02:21:16.228Z,14.86
2022-10-01T02:22:16.175Z,14.87
2022-10-01T02:23:16.120Z,14.87
2022-10-01T02:24:16.066Z,14.80
2022-10-01T02:25:16.011Z,14.91
2022-10-01T02:26:15.960Z,14.80
2022-10-01T02:27:15.900Z,14.88
2022-10-01T02:28:15.913Z,14.87
2022-10-01T02:29:15.792Z,14.88
2022-10-01T02:30:15.752Z,14.86
2022-10-01T02:31:15.759Z,14.83
2022-10-01T02:32:15.632Z,14.84
2022-10-01T02:33:15.579Z,14.88
2022-10-01T02:34:18.250Z,14.88
2022-10-01T02:35:15.465Z,14.87
2022-10-01T02:36:15.411Z,14.88
2022-10-01T02:37:15.359Z,14.87
2022-10-01T02:38:15.301Z,14.83
2022-10-01T02:39:15.248Z,14.83
2022-10-01T02:40:15.193Z,14.87
2022-10-01T02:41:15.140Z,14.86
2022-10-01T02:42:15.172Z,14.86
2022-10-01T02:43:15.035Z,14.83
2022-10-01T02:44:14.975Z,14.80
2022-10-01T02:45:14.921Z,14.75
2022-10-01T02:46:14.961Z,14.75
2022-10-01T02:47:14.809Z,14.87
2022-10-01T02:48:14.754Z,14.74
2022-10-01T02:49:14.701Z,14.87
2022-10-01T02:50:14.644Z,14.78
2022-10-01T02:51:14.595Z,14.80
2022-10-01T02:52:14.535Z,14.80
2022-10-01T02:53:14.482Z,14.80
2022-10-01T02:54:14.431Z,14.80
2022-10-01T02:55:14.375Z,14.87
2022-10-01T02:56:14.317Z,14.74
2022-10-01T02:57:14.264Z,14.86
2022-10-01T02:58:14.216Z,14.87
2022-10-01T02:59:14.157Z,14.87
2022-10-01T03:00:14.098Z,14.88
2022-10-01T03:01:14.105Z,14.75
2022-10-01T03:02:14.065Z,14.84
2022-10-01T03:03:13.937Z,14.86
2022-10-01T03:04:13.880Z,14.75
2022-10-01T03:05:13.826Z,14.90
2022-10-01T03:06:13.770Z,14.84
2022-10-01T03:07:13.721Z,14.86
2022-10-01T03:08:13.663Z,14.78
2022-10-01T03:09:13.609Z,14.75
2022-10-01T03:10:13.552Z,14.81
2022-10-01T03:11:13.502Z,14.72
2022-10-01T03:12:13.447Z,14.78
2022-10-01T03:13:13.482Z,14.83
2022-10-01T03:14:13.341Z,14.72
2022-10-01T03:15:13.280Z,14.81
2022-10-01T03:16:13.265Z,14.84
2022-10-01T03:17:13.173Z,14.81
2022-10-01T03:18:13.116Z,14.69
2022-10-01T03:19:13.063Z,14.75
2022-10-01T03:20:13.005Z,14.80
2022-10-01T03:21:12.954Z,14.69
2022-10-01T03:22:12.899Z,14.81
2022-10-01T03:23:12.843Z,14.83
2022-10-01T03:24:12.788Z,14.72
2022-10-01T03:25:12.736Z,14.80
2022-10-01T03:26:12.679Z,14.80
2022-10-01T03:27:12.626Z,14.78
2022-10-01T03:28:12.620Z,14.86
2022-10-01T03:29:12.518Z,14.69
2022-10-01T03:30:12.465Z,14.72
2022-10-01T03:31:12.440Z,14.81
2022-10-01T03:32:12.350Z,14.81
2022-10-01T03:33:12.300Z,14.75
2022-10-01T03:34:12.299Z,14.75
2022-10-01T03:35:12.187Z,14.75
2022-10-01T03:36:12.133Z,14.74
2022-10-01T03:37:12.080Z,14.83
2022-10-01T03:38:12.022Z,14.71
2022-10-01T03:39:11.972Z,14.75
2022-10-01T03:40:11.914Z,14.75
2022-10-01T03:41:11.863Z,14.84
2022-10-01T03:42:11.804Z,14.83
2022-10-01T03:43:11.752Z,14.80
2022-10-01T03:44:11.695Z,14.74
2022-10-01T03:45:11.641Z,14.75
2022-10-01T03:46:11.727Z,14.74
2022-10-01T03:47:11.534Z,14.72
2022-10-01T03:48:11.479Z,14.67
2022-10-01T03:49:11.423Z,14.72
2022-10-01T03:50:11.366Z,14.72
2022-10-01T03:51:11.313Z,14.78
2022-10-01T03:52:11.258Z,14.75
2022-10-01T03:53:11.204Z,14.78
2022-10-01T03:54:11.150Z,14.74
2022-10-01T03:55:11.102Z,14.71
2022-10-01T03:56:11.039Z,14.69
2022-10-01T03:57:10.987Z,14.78
2022-10-01T03:58:10.931Z,14.74
2022-10-01T03:59:10.880Z,14.72
2022-10-01T04:00:10.820Z,14.74
2022-10-01T04:01:10.770Z,14.69
2022-10-01T04:02:10.858Z,14.69
2022-10-01T04:03:10.704Z,14.67
2022-10-01T04:04:10.611Z,14.65
2022-10-01T04:05:10.548Z,14.71
2022-10-01T04:06:10.493Z,14.67
2022-10-01T04:07:10.438Z,14.67
2022-10-01T04:08:10.391Z,14.74
2022-10-01T04:09:10.331Z,14.68
2022-10-01T04:10:10.276Z,14.69
2022-10-01T04:11:10.221Z,14.68
2022-10-01T04:12:10.164Z,14.74
2022-10-01T04:13:10.129Z,14.71
2022-10-01T04:14:10.054Z,14.65
2022-10-01T04:15:10.005Z,14.69
2022-10-01T04:16:09.983Z,14.69
2022-10-01T04:17:09.893Z,14.67
2022-10-01T04:18:09.842Z,14.67
2022-10-01T04:19:09.786Z,14.67
2022-10-01T04:20:09.729Z,14.68
2022-10-01T04:21:09.675Z,14.67
2022-10-01T04:22:09.617Z,14.65
2022-10-01T04:23:09.565Z,14.71
2022-10-01T04:24:09.508Z,14.64
2022-10-01T04:25:09.463Z,14.67
2022-10-01T04:26:09.398Z,14.67
2022-10-01T04:27:09.345Z,14.72
2022-10-01T04:28:09.347Z,14.71
2022-10-01T04:29:09.237Z,14.65
2022-10-01T04:30:09.182Z,14.68
2022-10-01T04:31:09.160Z,14.67
2022-10-01T04:32:09.072Z,14.68
2022-10-01T04:33:09.020Z,14.65
2022-10-01T04:34:08.966Z,14.67
2022-10-01T04:35:08.909Z,14.71
2022-10-01T04:36:08.852Z,14.69
2022-10-01T04:37:08.799Z,14.65
2022-10-01T04:38:08.741Z,14.71
2022-10-01T04:39:08.688Z,14.64
2022-10-01T04:40:08.634Z,14.68
2022-10-01T04:41:08.580Z,14.62
2022-10-01T04:42:08.577Z,14.64
2022-10-01T04:43:08.470Z,14.72
2022-10-01T04:44:08.420Z,14.67
2022-10-01T04:45:08.362Z,14.67
2022-10-01T04:46:08.397Z,14.68
2022-10-01T04:47:08.348Z,14.68
2022-10-01T04:48:08.311Z,14.67
2022-10-01T04:49:08.144Z,14.72
2022-10-01T04:50:08.091Z,14.65
2022-10-01T04:51:08.035Z,14.67
2022-10-01T04:52:07.980Z,14.71
2022-10-01T04:53:08.038Z,14.69
2022-10-01T04:54:07.870Z,14.71
2022-10-01T04:55:07.815Z,14.67
2022-10-01T04:56:07.758Z,14.75
2022-10-01T04:57:07.709Z,14.68
2022-10-01T04:58:07.648Z,14.69
2022-10-01T04:59:07.595Z,14.68
2022-10-01T05:00:07.542Z,14.74
2022-10-01T05:01:07.504Z,14.69
2022-10-01T05:02:07.511Z,14.62
2022-10-01T05:03:07.379Z,14.68
2022-10-01T05:04:07.322Z,14.67
2022-10-01T05:05:07.268Z,14.61
2022-10-01T05:06:07.220Z,14.65
2022-10-01T05:07:07.173Z,14.64
2022-10-01T05:08:07.102Z,14.65
2022-10-01T05:09:07.049Z,14.67
2022-10-01T05:10:06.992Z,14.67
2022-10-01T05:11:06.944Z,14.72
2022-10-01T05:12:06.883Z,14.64
2022-10-01T05:13:06.831Z,14.71
2022-10-01T05:14:06.772Z,14.65
2022-10-01T05:15:06.721Z,14.71
2022-10-01T05:16:06.664Z,14.67
2022-10-01T05:17:06.614Z,14.69
2022-10-01T05:18:06.556Z,14.64
2022-10-01T05:19:06.501Z,14.72
2022-10-01T05:20:06.447Z,14.68
2022-10-01T05:21:06.391Z,14.64
2022-10-01T05:22:06.342Z,14.69
2022-10-01T05:23:06.281Z,14.65
2022-10-01T05:24:06.229Z,14.64
2022-10-01T05:25:06.174Z,14.61
2022-10-01T05:26:06.118Z,14.74
2022-10-01T05:27:06.064Z,14.61
2022-10-01T05:28:06.155Z,14.69
2022-10-01T05:29:05.956Z,14.68
2022-10-01T05:30:05.897Z,14.68
2022-10-01T05:31:08.405Z,14.68
2022-10-01T05:32:05.888Z,14.67
2022-10-01T05:33:05.736Z,14.65
2022-10-01T05:34:05.679Z,14.56
2022-10-01T05:35:05.626Z,14.67
2022-10-01T05:36:05.569Z,14.68
2022-10-01T05:37:05.516Z,14.62
2022-10-01T05:38:05.467Z,14.67
2022-10-01T05:39:05.408Z,14.61
2022-10-01T05:40:05.350Z,14.68
2022-10-01T05:41:05.297Z,14.67
2022-10-01T05:42:06.574Z,14.54
2022-10-01T05:43:05.187Z,14.64
2022-10-01T05:44:05.133Z,14.67
2022-10-01T05:45:05.079Z,14.65
2022-10-01T05:46:05.077Z,14.68
2022-10-01T05:47:04.968Z,14.67
2022-10-01T05:48:04.925Z,14.67
2022-10-01T05:49:04.860Z,14.53
2022-10-01T05:50:04.802Z,14.62
2022-10-01T05:51:04.752Z,14.65
2022-10-01T05:52:04.693Z,14.53
2022-10-01T05:53:04.642Z,14.68
2022-10-01T05:54:04.589Z,14.68
2022-10-01T05:55:04.532Z,14.68
2022-10-01T05:56:04.476Z,14.61
2022-10-01T05:57:04.423Z,14.53
2022-10-01T05:58:04.369Z,14.71
2022-10-01T05:59:04.311Z,14.57
2022-10-01T06:00:04.256Z,14.57
2022-10-01T06:01:04.223Z,14.57
2022-10-01T06:02:04.421Z,14.56
2022-10-01T06:03:04.154Z,14.67
2022-10-01T06:04:04.037Z,14.56
2022-10-01T06:05:03.989Z,14.56
2022-10-01T06:06:03.928Z,14.56
2022-10-01T06:07:03.874Z,14.54
2022-10-01T06:08:03.820Z,14.61
2022-10-01T06:09:03.767Z,14.57
2022-10-01T06:10:03.769Z,14.64
2022-10-01T06:11:03.655Z,14.54
2022-10-01T06:12:03.601Z,14.56
2022-10-01T06:13:03.579Z,14.54
2022-10-01T06:14:03.492Z,14.56
2022-10-01T06:15:03.442Z,14.56
2022-10-01T06:16:03.444Z,14.53
2022-10-01T06:17:03.327Z,14.54
2022-10-01T06:18:03.274Z,14.60
2022-10-01T06:19:03.215Z,14.62
2022-10-01T06:20:03.161Z,14.56
2022-10-01T06:21:03.109Z,14.53
2022-10-01T06:22:03.077Z,14.53
2022-10-01T06:23:03.002Z,14.57
2022-10-01T06:24:02.958Z,14.57
2022-10-01T06:25:02.907Z,14.56
2022-10-01T06:26:02.850Z,14.60
2022-10-01T06:27:02.787Z,14.53
2022-10-01T06:28:02.776Z,14.60
2022-10-01T06:29:02.672Z,14.61
2022-10-01T06:30:02.612Z,14.54
2022-10-01T06:31:02.559Z,14.53
2022-10-01T06:32:02.556Z,14.57
2022-10-01T06:33:02.451Z,14.54
2022-10-01T06:34:02.405Z,14.68
2022-10-01T06:35:02.342Z,14.54
2022-10-01T06:36:02.283Z,14.52
2022-10-01T06:37:02.233Z,14.56
2022-10-01T06:38:02.177Z,14.50
2022-10-01T06:39:02.122Z,14.56
2022-10-01T06:40:02.065Z,14.53
2022-10-01T06:41:02.018Z,14.60
2022-10-01T06:42:02.165Z,14.53
2022-10-01T06:43:01.909Z,14.54
2022-10-01T06:44:01.847Z,14.57
2022-10-01T06:45:01.793Z,14.54
2022-10-01T06:46:01.780Z,14.56
2022-10-01T06:47:01.681Z,14.54
2022-10-01T06:48:01.629Z,14.61
2022-10-01T06:49:01.575Z,14.65
2022-10-01T06:50:01.521Z,14.53
2022-10-01T06:51:01.465Z,14.47
2022-10-01T06:52:01.410Z,14.57
2022-10-01T06:53:01.355Z,14.57
2022-10-01T06:54:01.302Z,14.53
2022-10-01T06:55:01.255Z,14.60
2022-10-01T06:56:01.199Z,14.62
2022-10-01T06:57:01.134Z,14.68
2022-10-01T06:58:01.084Z,14.54
2022-10-01T06:59:01.028Z,14.67
2022-10-01T07:00:00.972Z,14.67
2022-10-01T07:01:00.997Z,14.65
2022-10-01T07:02:00.917Z,14.71
2022-10-01T07:03:00.806Z,14.54
2022-10-01T07:04:00.752Z,14.67
2022-10-01T07:05:00.771Z,14.68
2022-10-01T07:06:00.643Z,14.68
2022-10-01T07:07:00.682Z,14.64
2022-10-01T07:08:00.532Z,14.68
2022-10-01T07:09:00.477Z,14.65
2022-10-01T07:10:00.423Z,14.67
2022-10-01T07:11:00.399Z,14.67
2022-10-01T07:12:00.314Z,14.62
2022-10-01T07:13:00.257Z,14.67
2022-10-01T07:14:00.213Z,14.61
2022-10-01T07:15:00.151Z,14.69
2022-10-01T07:16:00.216Z,14.56
2022-10-01T07:17:00.041Z,14.62
2022-10-01T07:17:59.985Z,14.65
2022-10-01T07:18:59.928Z,14.65
2022-10-01T07:19:59.917Z,14.67
2022-10-01T07:20:59.832Z,14.67
2022-10-01T07:21:59.771Z,14.67
2022-10-01T07:22:59.712Z,14.56
2022-10-01T07:23:59.658Z,14.68
2022-10-01T07:24:59.681Z,14.71
2022-10-01T07:25:59.546Z,14.67
2022-10-01T07:27:02.581Z,14.64
2022-10-01T07:27:59.504Z,14.71
2022-10-01T07:28:59.384Z,14.64
2022-10-01T07:29:59.331Z,14.62
2022-10-01T07:30:59.275Z,14.64
2022-10-01T07:31:59.305Z,14.65
2022-10-01T07:32:59.163Z,14.65
2022-10-01T07:33:59.118Z,14.65
2022-10-01T07:34:59.054Z,14.64
2022-10-01T07:35:59.002Z,14.67
2022-10-01T07:36:58.943Z,14.64
2022-10-01T07:37:58.891Z,14.65
2022-10-01T07:38:58.835Z,14.67
2022-10-01T07:39:58.783Z,14.68
2022-10-01T07:40:58.725Z,14.62
2022-10-01T07:41:58.670Z,14.72
2022-10-01T07:42:58.615Z,14.68
2022-10-01T07:43:58.563Z,14.68
2022-10-01T07:44:58.505Z,14.65
2022-10-01T07:45:58.548Z,14.65
2022-10-01T07:46:58.396Z,14.64
2022-10-01T07:47:58.341Z,14.67
2022-10-01T07:48:58.289Z,14.69
2022-10-01T07:49:58.233Z,14.62
2022-10-01T07:50:58.177Z,14.68
2022-10-01T07:51:58.124Z,14.67
2022-10-01T07:52:58.067Z,14.68
2022-10-01T07:53:58.013Z,14.65
2022-10-01T07:54:57.957Z,14.69
2022-10-01T07:55:57.905Z,14.62
2022-10-01T07:56:57.852Z,14.68
2022-10-01T07:57:57.796Z,14.64
2022-10-01T07:58:57.738Z,14.68
2022-10-01T07:59:57.685Z,14.68
2022-10-01T08:00:57.637Z,14.68
2022-10-01T08:01:57.632Z,14.65
2022-10-01T08:02:57.519Z,14.68
2022-10-01T08:03:57.496Z,14.68
2022-10-01T08:04:57.411Z,14.65
2022-10-01T08:05:57.356Z,14.65
2022-10-01T08:06:57.302Z,14.68
2022-10-01T08:07:57.247Z,14.67
2022-10-01T08:08:57.192Z,14.65
2022-10-01T08:09:57.138Z,14.65
2022-10-01T08:10:57.081Z,14.65
2022-10-01T08:11:57.032Z,14.68
2022-10-01T08:12:56.974Z,14.61
2022-10-01T08:13:56.918Z,14.64
2022-10-01T08:14:56.863Z,14.67
2022-10-01T08:15:56.811Z,14.69
2022-10-01T08:16:56.780Z,14.74
2022-10-01T08:17:56.707Z,14.68
2022-10-01T08:18:56.646Z,14.64
2022-10-01T08:19:56.609Z,14.61
2022-10-01T08:20:56.535Z,14.67
2022-10-01T08:21:56.481Z,14.61
2022-10-01T08:22:56.437Z,14.64
2022-10-01T08:23:56.373Z,14.69
2022-10-01T08:24:56.314Z,14.65
2022-10-01T08:25:56.263Z,14.69
2022-10-01T08:26:56.232Z,14.65
2022-10-01T08:27:56.204Z,14.65
2022-10-01T08:28:56.097Z,14.65
2022-10-01T08:29:56.053Z,14.65
2022-10-01T08:30:55.987Z,14.74
2022-10-01T08:31:56.000Z,14.64
2022-10-01T08:32:55.877Z,14.67
2022-10-01T08:33:55.870Z,14.68
2022-10-01T08:34:56.752Z,14.64
2022-10-01T08:35:55.718Z,14.67
2022-10-01T08:36:55.658Z,14.67
2022-10-01T08:37:55.613Z,14.68
2022-10-01T08:38:55.548Z,14.69
2022-10-01T08:39:55.495Z,14.65
2022-10-01T08:40:55.440Z,14.64
2022-10-01T08:41:55.391Z,14.68
2022-10-01T08:42:55.330Z,14.64
2022-10-01T08:43:55.279Z,14.69
2022-10-01T08:44:55.221Z,14.67
2022-10-01T08:45:55.185Z,14.67
2022-10-01T08:46:55.111Z,14.67
2022-10-01T08:47:55.078Z,14.67
2022-10-01T08:48:57.382Z,14.67
2022-10-01T08:49:54.953Z,14.67
2022-10-01T08:50:54.891Z,14.65
2022-10-01T08:51:54.842Z,14.68
2022-10-01T08:52:54.796Z,14.67
2022-10-01T08:53:54.729Z,14.69
2022-10-01T08:54:54.675Z,14.65
2022-10-01T08:55:54.622Z,14.69
2022-10-01T08:56:54.564Z,14.72
2022-10-01T08:57:54.509Z,14.68
2022-10-01T08:58:54.453Z,14.75
2022-10-01T08:59:54.401Z,14.68
2022-10-01T09:01:15.401Z,14.69
2022-10-01T09:01:54.288Z,14.67
2022-10-01T09:02:54.236Z,14.68
2022-10-01T09:03:54.180Z,14.72
2022-10-01T09:04:56.775Z,14.67
2022-10-01T09:05:54.139Z,14.68
2022-10-01T09:06:54.018Z,14.69
2022-10-01T09:07:54.911Z,14.69
2022-10-01T09:08:53.907Z,14.65
2022-10-01T09:09:53.853Z,14.64
2022-10-01T09:10:53.799Z,14.68
2022-10-01T09:11:53.772Z,14.68
2022-10-01T09:12:53.690Z,14.75
2022-10-01T09:13:53.632Z,14.74
2022-10-01T09:14:53.579Z,14.67
2022-10-01T09:15:53.523Z,14.69
2022-10-01T09:17:00.414Z,14.67
2022-10-01T09:17:53.416Z,14.69
2022-10-01T09:18:53.361Z,14.68
2022-10-01T09:19:53.310Z,14.62
2022-10-01T09:20:53.251Z,14.69
2022-10-01T09:21:53.204Z,14.67
2022-10-01T09:22:53.141Z,14.67
2022-10-01T09:23:53.085Z,14.72
2022-10-01T09:24:53.033Z,14.64
2022-10-01T09:25:52.977Z,14.71
2022-10-01T09:26:52.924Z,14.71
2022-10-01T09:27:52.898Z,14.68
2022-10-01T09:28:52.813Z,14.74
2022-10-01T09:29:52.761Z,14.75
2022-10-01T09:30:52.704Z,14.62
2022-10-01T09:31:52.684Z,14.71
2022-10-01T09:32:52.596Z,14.75
2022-10-01T09:33:52.538Z,14.69
2022-10-01T09:34:52.489Z,14.74
2022-10-01T09:35:52.429Z,14.72
2022-10-01T09:36:52.377Z,14.72
2022-10-01T09:37:52.379Z,14.72
2022-10-01T09:38:52.266Z,14.78
2022-10-01T09:39:52.212Z,14.74
2022-10-01T09:40:52.157Z,14.71
2022-10-01T09:41:52.099Z,14.71
2022-10-01T09:42:52.047Z,14.83
2022-10-01T09:43:51.991Z,14.80
2022-10-01T09:44:51.938Z,14.78
2022-10-01T09:45:51.922Z,14.78
2022-10-01T09:46:51.831Z,14.71
2022-10-01T09:47:51.772Z,14.75
2022-10-01T09:48:51.720Z,14.75
2022-10-01T09:49:51.663Z,14.78
2022-10-01T09:50:51.610Z,14.72
2022-10-01T09:51:51.554Z,14.72
2022-10-01T09:52:51.509Z,14.78
2022-10-01T09:53:51.447Z,14.78
2022-10-01T09:54:51.390Z,14.75
2022-10-01T09:55:51.334Z,14.84
2022-10-01T09:56:51.282Z,14.83
2022-10-01T09:57:51.225Z,14.75
2022-10-01T09:58:51.173Z,14.78
2022-10-01T09:59:51.117Z,14.74
2022-10-01T10:00:51.066Z,14.75
2022-10-01T10:01:51.069Z,14.83
2022-10-01T10:02:51.142Z,14.83
2022-10-01T10:03:50.898Z,14.81
2022-10-01T10:04:50.844Z,14.84
2022-10-01T10:05:50.787Z,14.78
2022-10-01T10:06:50.734Z,14.78
2022-10-01T10:07:50.681Z,14.68
2022-10-01T10:08:50.659Z,14.75
2022-10-01T10:09:50.575Z,14.75
2022-10-01T10:10:50.516Z,14.75
2022-10-01T10:11:50.458Z,14.84
2022-10-01T10:12:50.408Z,14.75
2022-10-01T10:13:50.354Z,14.71
2022-10-01T10:14:50.298Z,14.72
2022-10-01T10:15:50.278Z,14.80
2022-10-01T10:16:50.187Z,14.80
2022-10-01T10:17:50.130Z,14.75
2022-10-01T10:18:50.077Z,14.74
2022-10-01T10:19:50.022Z,14.80
2022-10-01T10:20:49.972Z,14.81
2022-10-01T10:21:49.912Z,14.86
2022-10-01T10:22:49.862Z,14.86
2022-10-01T10:23:49.804Z,14.71
2022-10-01T10:24:49.751Z,14.80
2022-10-01T10:25:49.699Z,14.83
2022-10-01T10:26:49.640Z,14.86
2022-10-01T10:27:49.599Z,14.75
2022-10-01T10:28:49.539Z,14.75
2022-10-01T10:29:49.475Z,14.83
2022-10-01T10:30:49.420Z,14.74
2022-10-01T10:31:49.418Z,14.81
2022-10-01T10:32:49.313Z,14.80
2022-10-01T10:33:49.255Z,14.87
2022-10-01T10:34:49.202Z,14.83
2022-10-01T10:35:49.146Z,14.71
2022-10-01T10:36:49.095Z,14.86
2022-10-01T10:37:49.037Z,14.80
2022-10-01T10:38:48.991Z,14.75
2022-10-01T10:39:48.928Z,14.83
2022-10-01T10:40:48.876Z,14.78
2022-10-01T10:41:48.830Z,14.69
2022-10-01T10:42:48.766Z,14.80
2022-10-01T10:43:48.709Z,14.75
2022-10-01T10:44:48.656Z,14.74
2022-10-01T10:45:48.598Z,14.72
2022-10-01T10:46:48.639Z,14.83
2022-10-01T10:47:48.490Z,14.75
2022-10-01T10:48:48.440Z,14.75
2022-10-01T10:49:48.383Z,14.75
2022-10-01T10:50:48.329Z,14.83
2022-10-01T10:51:48.272Z,14.75
2022-10-01T10:52:48.232Z,14.72
2022-10-01T10:53:48.164Z,14.80
2022-10-01T10:54:48.112Z,14.75
2022-10-01T10:55:48.053Z,14.78
2022-10-01T10:56:48.001Z,14.80
2022-10-01T10:57:47.951Z,14.83
2022-10-01T10:58:47.891Z,14.81
2022-10-01T10:59:47.838Z,14.78
2022-10-01T11:00:47.784Z,14.81
2022-10-01T11:01:52.560Z,14.69
2022-10-01T11:02:47.726Z,14.81
2022-10-01T11:03:47.619Z,14.81
2022-10-01T11:04:47.561Z,14.86
2022-10-01T11:05:47.507Z,14.84
2022-10-01T11:06:47.451Z,14.78
2022-10-01T11:07:47.398Z,14.86
2022-10-01T11:08:47.343Z,14.75
2022-10-01T11:09:47.291Z,14.87
2022-10-01T11:10:47.232Z,14.78
2022-10-01T11:11:47.183Z,14.90
2022-10-01T11:12:47.127Z,14.69
2022-10-01T11:13:47.078Z,14.84
2022-10-01T11:14:47.014Z,14.80
2022-10-01T11:15:47.018Z,14.80
2022-10-01T11:16:46.906Z,14.80
2022-10-01T11:17:46.851Z,14.86
2022-10-01T11:18:46.797Z,14.91
2022-10-01T11:19:46.763Z,14.91
2022-10-01T11:20:46.688Z,14.75
2022-10-01T11:21:46.634Z,14.86
2022-10-01T11:22:46.587Z,14.83
2022-10-01T11:23:46.529Z,14.83
2022-10-01T11:24:46.467Z,14.84
2022-10-01T11:25:46.414Z,14.87
2022-10-01T11:26:46.375Z,14.80
2022-10-01T11:27:46.336Z,14.75
2022-10-01T11:28:46.258Z,14.86
2022-10-01T11:29:46.203Z,14.81
2022-10-01T11:30:46.140Z,14.87
2022-10-01T11:31:46.104Z,14.86
2022-10-01T11:32:46.062Z,14.83
2022-10-01T11:33:45.977Z,14.75
2022-10-01T11:34:45.925Z,14.83
2022-10-01T11:35:45.869Z,14.91
2022-10-01T11:36:45.817Z,14.86
2022-10-01T11:37:45.757Z,14.80
2022-10-01T11:38:45.719Z,14.90
2022-10-01T11:39:45.650Z,14.87
2022-10-01T11:40:45.621Z,14.88
2022-10-01T11:41:45.538Z,14.91
2022-10-01T11:42:45.486Z,14.91
2022-10-01T11:43:45.432Z,14.81
2022-10-01T11:44:45.378Z,14.81
2022-10-01T11:45:45.327Z,14.88
2022-10-01T11:46:45.318Z,14.87
2022-10-01T11:47:45.211Z,14.87
2022-10-01T11:48:45.176Z,14.83
2022-10-01T11:49:45.102Z,14.87
2022-10-01T11:50:45.049Z,14.86
2022-10-01T11:51:45.010Z,14.86
2022-10-01T11:52:44.939Z,14.88
2022-10-01T11:53:44.887Z,14.80
2022-10-01T11:54:44.836Z,14.81
2022-10-01T11:55:44.773Z,14.83
2022-10-01T11:56:44.719Z,14.87
2022-10-01T11:57:44.665Z,14.87
2022-10-01T11:58:44.608Z,14.84
2022-10-01T11:59:44.559Z,14.88
2022-10-01T12:00:44.500Z,14.78
2022-10-01T12:01:44.500Z,14.91
2022-10-01T12:02:44.391Z,14.91
2022-10-01T12:03:44.340Z,14.88
2022-10-01T12:04:44.281Z,14.86
2022-10-01T12:05:44.306Z,14.86
2022-10-01T12:06:44.173Z,14.91
2022-10-01T12:07:50.957Z,14.88
2022-10-01T12:08:44.064Z,14.90
2022-10-01T12:09:44.008Z,14.91
2022-10-01T12:10:43.953Z,14.91
2022-10-01T12:11:43.900Z,14.90
2022-10-01T12:12:43.846Z,14.93
2022-10-01T12:13:43.802Z,14.86
2022-10-01T12:14:43.734Z,14.86
2022-10-01T12:15:43.746Z,14.86
2022-10-01T12:16:43.679Z,14.95
2022-10-01T12:17:43.690Z,14.88
2022-10-01T12:18:43.516Z,14.86
2022-10-01T12:19:43.469Z,14.88
2022-10-01T12:20:43.407Z,14.91
2022-10-01T12:21:43.352Z,14.83
2022-10-01T12:22:43.300Z,14.87
2022-10-01T12:23:43.245Z,14.84
2022-10-01T12:24:43.187Z,14.90
2022-10-01T12:25:43.135Z,14.87
2022-10-01T12:26:43.079Z,14.87
2022-10-01T12:27:43.027Z,14.94
2022-10-01T12:28:44.244Z,14.91
2022-10-01T12:29:42.916Z,14.86
2022-10-01T12:30:42.859Z,14.86
2022-10-01T12:31:42.842Z,14.88
2022-10-01T12:32:42.750Z,14.88
2022-10-01T12:33:42.702Z,14.87
2022-10-01T12:34:42.642Z,14.88
2022-10-01T12:35:42.591Z,14.93
2022-10-01T12:36:42.532Z,14.93
2022-10-01T12:37:42.481Z,14.88
2022-10-01T12:38:42.425Z,14.87
2022-10-01T12:39:42.369Z,14.93
2022-10-01T12:40:42.314Z,14.94
2022-10-01T12:41:42.259Z,14.88
2022-10-01T12:42:42.203Z,14.93
2022-10-01T12:43:42.150Z,14.87
2022-10-01T12:44:42.095Z,14.91
2022-10-01T12:45:42.043Z,14.88
2022-10-01T12:46:42.197Z,14.94
2022-10-01T12:47:41.939Z,14.93
2022-10-01T12:48:41.883Z,14.90
2022-10-01T12:49:41.838Z,14.80
2022-10-01T12:50:41.767Z,14.93
2022-10-01T12:51:41.714Z,14.93